Time;durP1;ratioP1;P1;durP2;ratioP2;P2;SDS_P1;SDS_P2;PMS_P1;PMS_P2;Temp;Humidity;BMP_temperature;BMP_pressure;BME280_temperature;BME280_humidity;BME280_pressure;Samples;Min_cycle;Max_cycle;Signal;HPM_P1;HPM_P2
2022/05/21 00:01:41;;;;;;;;;;;19.90;99.90;;;;;;5279862;28;20350;-74
2022/05/21 00:04:12;;;;;;;;;;;19.70;99.90;;;;;;5266773;28;19910;-73
2022/05/21 00:06:43;;;;;;;;;;;19.60;99.90;;;;;;5277881;28;20231;-73
2022/05/21 00:09:14;;;;;;;;;;;19.60;99.90;;;;;;5288618;28;19895;-73
2022/05/21 00:11:45;;;;;;;;;;;19.60;99.90;;;;;;5270582;28;20289;-72
2022/05/21 00:14:16;;;;;;;;;;;19.60;99.90;;;;;;5280437;28;20198;-73
2022/05/21 00:16:48;;;;;;;;;;;19.80;99.90;;;;;;5281183;28;19923;-72
2022/05/21 00:19:19;;;;;;;;;;;19.60;99.90;;;;;;5282066;28;19968;-72
2022/05/21 00:21:50;;;;;;;;;;;19.50;99.90;;;;;;5280433;28;19913;-72
2022/05/21 00:24:21;;;;;;;;;;;19.40;99.90;;;;;;5278405;28;19900;-72
2022/05/21 00:26:53;;;;;;;;;;;19.30;99.90;;;;;;5280984;28;20519;-72
2022/05/21 00:29:28;;;;;;;;;;;19.20;99.90;;;;;;5280543;28;19908;-72
2022/05/21 00:31:59;;;;;;;;;;;19.30;99.90;;;;;;5279881;28;19906;-71
2022/05/21 00:34:30;;;;;;;;;;;19.30;99.90;;;;;;5280256;28;19943;-72
2022/05/21 00:37:02;;;;;;;;;;;19.30;99.90;;;;;;5288166;28;19900;-72
2022/05/21 00:39:35;;;;;;;;;;;19.40;99.90;;;;;;5262395;28;19904;-72
2022/05/21 00:42:07;;;;;;;;;;;19.50;99.90;;;;;;5280354;28;19910;-73
2022/05/21 00:44:40;;;;;;;;;;;19.40;99.90;;;;;;5278804;28;19900;-73
2022/05/21 00:47:11;;;;;;;;;;;19.40;99.90;;;;;;5279442;28;19900;-74
2022/05/21 00:49:43;;;;;;;;;;;19.40;99.90;;;;;;5282897;28;19908;-73
2022/05/21 00:52:20;;;;;;;;;;;19.20;99.90;;;;;;5283922;28;19907;-75
2022/05/21 00:54:56;;;;;;;;;;;19.10;99.90;;;;;;5283681;28;19910;-75
2022/05/21 00:57:31;;;;;;;;;;;18.90;99.90;;;;;;5283796;28;19896;-74
2022/05/21 01:00:05;;;;;;;;;;;18.90;99.90;;;;;;5280652;28;19916;-75
2022/05/21 01:02:39;;;;;;;;;;;18.70;99.90;;;;;;5283408;28;19910;-74
2022/05/21 01:05:12;;;;;;;;;;;18.60;99.90;;;;;;5274258;28;20319;-74
2022/05/21 01:07:44;;;;;;;;;;;18.50;99.90;;;;;;5285468;28;19899;-75
2022/05/21 01:10:19;;;;;;;;;;;18.40;99.90;;;;;;5266498;28;19904;-75
2022/05/21 01:12:54;;;;;;;;;;;18.30;99.90;;;;;;5285950;28;19900;-75
2022/05/21 01:15:32;;;;;;;;;;;18.40;99.90;;;;;;5283955;28;20398;-75
2022/05/21 01:18:07;;;;;;;;;;;18.80;99.90;;;;;;5284712;28;19910;-74
2022/05/21 01:20:44;;;;;;;;;;;18.90;99.90;;;;;;5285058;28;19907;-73
2022/05/21 01:23:19;;;;;;;;;;;18.80;99.90;;;;;;5273970;28;19900;-72
2022/05/21 01:25:50;;;;;;;;;;;18.50;99.90;;;;;;5246050;28;19934;-73
2022/05/21 01:28:23;;;;;;;;;;;18.30;99.90;;;;;;5282282;28;20272;-74
2022/05/21 01:30:58;;;;;;;;;;;18.20;99.90;;;;;;5265131;28;19900;-71
2022/05/21 01:33:37;;;;;;;;;;;18.10;99.90;;;;;;5284947;28;19921;-75
2022/05/21 01:36:08;;;;;;;;;;;18.00;99.90;;;;;;5291082;27;20231;-73
2022/05/21 01:38:40;;;;;;;;;;;18.00;99.90;;;;;;5304791;27;19904;-73
2022/05/21 01:41:13;;;;;;;;;;;18.00;99.90;;;;;;5296022;27;20001;-73
2022/05/21 01:46:36;;;;;;;;;;;18.00;99.90;;;;;;5283079;28;19899;-74
2022/05/21 01:49:09;;;;;;;;;;;18.00;99.90;;;;;;5282391;28;19904;-73
2022/05/21 01:51:41;;;;;;;;;;;18.00;99.90;;;;;;5281879;28;19911;-73
2022/05/21 01:54:14;;;;;;;;;;;18.00;99.90;;;;;;5266035;28;19915;-73
2022/05/21 01:56:47;;;;;;;;;;;18.10;99.90;;;;;;5281954;28;19902;-74
2022/05/21 01:59:18;;;;;;;;;;;18.00;99.90;;;;;;5283004;28;19906;-73
2022/05/21 02:01:49;;;;;;;;;;;18.00;99.90;;;;;;5264628;28;20202;-73
2022/05/21 02:04:21;;;;;;;;;;;18.00;99.90;;;;;;5272913;28;19900;-73
2022/05/21 02:06:56;;;;;;;;;;;17.90;99.90;;;;;;5282659;27;19919;-73
2022/05/21 02:09:27;;;;;;;;;;;18.00;99.90;;;;;;5263988;28;19916;-74
2022/05/21 02:11:58;;;;;;;;;;;17.90;99.90;;;;;;5283201;28;19919;-74
2022/05/21 02:14:29;;;;;;;;;;;17.90;99.90;;;;;;5281834;28;19945;-74
2022/05/21 02:17:00;;;;;;;;;;;17.90;99.90;;;;;;5282445;28;19942;-74
2022/05/21 02:19:37;;;;;;;;;;;17.90;99.90;;;;;;5282442;28;19899;-74
2022/05/21 02:22:15;;;;;;;;;;;17.90;99.90;;;;;;5282850;28;19911;-74
2022/05/21 02:24:48;;;;;;;;;;;17.90;99.90;;;;;;5282835;28;20245;-74
2022/05/21 02:27:22;;;;;;;;;;;17.90;99.90;;;;;;5281867;28;19910;-74
2022/05/21 02:29:55;;;;;;;;;;;17.90;99.90;;;;;;5263646;28;19982;-73
2022/05/21 02:32:27;;;;;;;;;;;17.80;99.90;;;;;;5281781;28;19903;-73
2022/05/21 02:34:58;;;;;;;;;;;17.80;99.90;;;;;;5282467;28;20142;-73
2022/05/21 02:40:18;;;;;;;;;;;17.90;99.90;;;;;;5302709;27;19900;-73
2022/05/21 02:42:51;;;;;;;;;;;17.90;99.90;;;;;;5280981;28;19954;-73
2022/05/21 02:45:23;;;;;;;;;;;17.80;99.90;;;;;;5281740;28;19910;-73
2022/05/21 02:47:57;;;;;;;;;;;17.90;99.90;;;;;;5281541;28;19904;-73
2022/05/21 02:50:35;;;;;;;;;;;17.90;99.90;;;;;;5281719;28;19900;-73
2022/05/21 02:53:08;;;;;;;;;;;17.90;99.90;;;;;;5264118;28;19916;-73
2022/05/21 02:55:39;;;;;;;;;;;17.90;99.90;;;;;;5276574;28;20311;-73
2022/05/21 02:58:10;;;;;;;;;;;17.90;99.90;;;;;;5277585;28;19967;-73
2022/05/21 03:00:42;;;;;;;;;;;17.90;99.90;;;;;;5280957;28;19904;-72
2022/05/21 03:03:13;;;;;;;;;;;17.80;99.90;;;;;;5282435;28;19908;-73
2022/05/21 03:05:45;;;;;;;;;;;17.70;99.90;;;;;;5271036;28;19903;-73
2022/05/21 03:11:05;;;;;;;;;;;17.60;99.90;;;;;;5279302;28;19900;-76
2022/05/21 03:13:38;;;;;;;;;;;17.50;99.90;;;;;;5281412;28;19917;-74
2022/05/21 03:16:09;;;;;;;;;;;17.50;99.90;;;;;;5281369;28;19900;-76
2022/05/21 03:18:42;;;;;;;;;;;17.50;99.90;;;;;;5283748;28;19908;-76
2022/05/21 03:21:15;;;;;;;;;;;17.40;99.90;;;;;;5283232;28;19908;-75
2022/05/21 03:23:49;;;;;;;;;;;17.50;99.90;;;;;;5264283;28;19899;-77
2022/05/21 03:26:20;;;;;;;;;;;17.40;99.90;;;;;;5282085;28;19906;-76
2022/05/21 03:28:53;;;;;;;;;;;17.50;99.90;;;;;;5283443;28;19900;-75
2022/05/21 03:31:24;;;;;;;;;;;17.50;99.90;;;;;;5283819;28;19910;-75
2022/05/21 03:34:00;;;;;;;;;;;17.50;99.90;;;;;;5282761;28;20017;-74
2022/05/21 03:36:32;;;;;;;;;;;17.50;99.90;;;;;;5277327;28;19908;-73
2022/05/21 03:39:03;;;;;;;;;;;17.40;99.90;;;;;;5264136;28;19900;-74
2022/05/21 03:41:36;;;;;;;;;;;17.40;99.90;;;;;;5283803;28;19907;-74
2022/05/21 03:44:08;;;;;;;;;;;17.40;99.90;;;;;;5283834;28;20311;-73
2022/05/21 03:46:39;;;;;;;;;;;17.40;99.90;;;;;;5266138;28;19910;-74
2022/05/21 03:49:10;;;;;;;;;;;17.40;99.90;;;;;;5240215;28;19917;-74
2022/05/21 03:51:44;;;;;;;;;;;17.40;99.90;;;;;;5270397;28;19918;-74
2022/05/21 03:54:15;;;;;;;;;;;17.40;99.90;;;;;;5282710;28;20207;-73
2022/05/21 03:56:46;;;;;;;;;;;17.40;99.90;;;;;;5282399;28;20427;-73
2022/05/21 03:59:17;;;;;;;;;;;17.40;99.90;;;;;;5283035;28;19904;-73
2022/05/21 04:01:50;;;;;;;;;;;17.40;99.90;;;;;;5263126;28;19931;-73
2022/05/21 04:04:23;;;;;;;;;;;17.50;99.90;;;;;;5270063;28;19904;-72
2022/05/21 04:06:57;;;;;;;;;;;17.60;99.90;;;;;;5276877;28;19910;-72
2022/05/21 04:09:28;;;;;;;;;;;17.60;99.90;;;;;;5289985;28;19903;-75
2022/05/21 04:12:05;;;;;;;;;;;17.60;99.90;;;;;;5274081;28;20235;-73
2022/05/21 04:14:36;;;;;;;;;;;17.60;99.90;;;;;;5278890;28;19904;-73
2022/05/21 04:17:13;;;;;;;;;;;17.70;99.90;;;;;;5280652;28;20096;-74
2022/05/21 04:19:44;;;;;;;;;;;17.70;99.90;;;;;;5281060;28;19899;-74
2022/05/21 04:22:15;;;;;;;;;;;17.80;99.90;;;;;;5283231;28;19949;-73
2022/05/21 04:24:51;;;;;;;;;;;17.90;99.90;;;;;;5283451;28;19906;-73
2022/05/21 04:27:22;;;;;;;;;;;18.00;99.90;;;;;;5284683;28;20231;-73
2022/05/21 04:29:53;;;;;;;;;;;18.10;99.90;;;;;;5285916;28;19947;-74
2022/05/21 04:32:24;;;;;;;;;;;18.30;99.90;;;;;;5286816;28;20185;-74
2022/05/21 04:34:55;;;;;;;;;;;18.40;99.90;;;;;;5287276;28;19899;-73
2022/05/21 04:37:27;;;;;;;;;;;18.30;99.90;;;;;;5301531;27;19912;-74
2022/05/21 04:39:58;;;;;;;;;;;18.50;99.90;;;;;;5285261;28;19900;-73
2022/05/21 04:42:29;;;;;;;;;;;18.50;99.90;;;;;;5282687;28;19978;-74
2022/05/21 04:45:03;;;;;;;;;;;18.60;99.90;;;;;;5282921;28;19899;-74
2022/05/21 04:47:37;;;;;;;;;;;18.80;99.90;;;;;;5283217;28;19904;-74
2022/05/21 04:50:09;;;;;;;;;;;18.90;99.90;;;;;;5265023;28;19900;-74
2022/05/21 04:52:42;;;;;;;;;;;18.90;99.90;;;;;;5273553;28;19922;-74
2022/05/21 04:55:15;;;;;;;;;;;18.90;99.90;;;;;;5284171;28;19906;-74
2022/05/21 04:57:49;;;;;;;;;;;18.90;99.90;;;;;;5284423;28;20273;-74
2022/05/21 05:00:20;;;;;;;;;;;18.90;99.90;;;;;;5249356;28;19910;-75
2022/05/21 05:02:53;;;;;;;;;;;18.90;99.90;;;;;;5284847;28;19904;-75
2022/05/21 05:05:24;;;;;;;;;;;18.90;99.90;;;;;;5273215;28;20243;-75
2022/05/21 05:07:58;;;;;;;;;;;19.00;99.90;;;;;;5284671;28;20254;-74
2022/05/21 05:10:37;;;;;;;;;;;19.00;99.90;;;;;;5299463;27;19903;-74
2022/05/21 05:13:11;;;;;;;;;;;19.00;99.90;;;;;;5281249;28;19910;-74
2022/05/21 05:15:46;;;;;;;;;;;19.00;99.90;;;;;;5282704;28;20099;-74
2022/05/21 05:18:21;;;;;;;;;;;19.20;99.90;;;;;;5283919;28;20086;-74
2022/05/21 05:20:52;;;;;;;;;;;19.20;99.90;;;;;;5283219;28;20327;-74
2022/05/21 05:23:23;;;;;;;;;;;19.30;99.90;;;;;;5280615;28;20331;-75
2022/05/21 05:25:59;;;;;;;;;;;19.30;99.90;;;;;;5283871;28;19900;-74
2022/05/21 05:28:34;;;;;;;;;;;19.30;99.90;;;;;;5283760;28;19903;-74
2022/05/21 05:31:08;;;;;;;;;;;19.30;99.90;;;;;;5283438;28;19907;-74
2022/05/21 05:33:41;;;;;;;;;;;19.40;99.90;;;;;;5283301;28;19900;-75
2022/05/21 05:36:14;;;;;;;;;;;19.50;99.90;;;;;;5292822;27;19908;-74
2022/05/21 05:38:45;;;;;;;;;;;19.50;99.90;;;;;;5300007;27;19900;-74
2022/05/21 05:41:19;;;;;;;;;;;19.50;99.90;;;;;;5283313;28;19960;-75
2022/05/21 05:43:53;;;;;;;;;;;19.60;99.90;;;;;;5282116;28;19904;-75
2022/05/21 05:46:26;;;;;;;;;;;19.60;99.90;;;;;;5280847;28;19900;-75
2022/05/21 05:49:00;;;;;;;;;;;19.70;99.90;;;;;;5266746;28;19904;-75
2022/05/21 05:51:32;;;;;;;;;;;19.70;99.90;;;;;;5282602;28;19921;-75
2022/05/21 05:54:03;;;;;;;;;;;19.80;99.90;;;;;;5282099;28;19910;-75
2022/05/21 05:56:35;;;;;;;;;;;19.80;99.90;;;;;;5282331;28;20351;-75
2022/05/21 06:04:45;;;;;;;;;;;20.00;99.90;;;;;;5272517;28;20066;-74
2022/05/21 06:07:18;;;;;;;;;;;20.00;99.90;;;;;;5282261;28;19942;-75
2022/05/21 06:09:54;;;;;;;;;;;20.10;99.90;;;;;;5297392;27;19900;-75
2022/05/21 06:12:26;;;;;;;;;;;20.10;99.90;;;;;;5279234;27;19899;-75
2022/05/21 06:14:59;;;;;;;;;;;20.10;99.90;;;;;;5282518;28;19969;-75
2022/05/21 06:17:33;;;;;;;;;;;20.20;99.90;;;;;;5282529;28;19906;-75
2022/05/21 06:20:08;;;;;;;;;;;20.20;99.90;;;;;;5283150;28;19953;-74
2022/05/21 06:22:42;;;;;;;;;;;20.40;99.90;;;;;;5277760;28;19908;-74
2022/05/21 06:25:17;;;;;;;;;;;20.40;99.90;;;;;;5261667;28;20417;-74
2022/05/21 06:27:52;;;;;;;;;;;20.40;99.90;;;;;;5255809;28;20102;-74
2022/05/21 06:30:26;;;;;;;;;;;20.40;99.90;;;;;;5282536;28;19910;-74
2022/05/21 06:32:59;;;;;;;;;;;20.40;99.90;;;;;;5282363;28;20232;-74
2022/05/21 06:35:33;;;;;;;;;;;20.40;99.90;;;;;;5284614;27;19905;-74
2022/05/21 06:38:04;;;;;;;;;;;20.40;99.90;;;;;;5260912;28;19900;-74
2022/05/21 06:40:35;;;;;;;;;;;20.40;99.90;;;;;;5277392;28;19906;-74
2022/05/21 06:43:11;;;;;;;;;;;20.40;99.90;;;;;;5273633;28;19912;-74
2022/05/21 06:45:42;;;;;;;;;;;20.60;99.90;;;;;;5263018;28;19912;-75
2022/05/21 06:48:13;;;;;;;;;;;20.70;99.90;;;;;;5237104;28;19949;-74
2022/05/21 06:50:45;;;;;;;;;;;20.70;99.90;;;;;;5263298;28;19908;-75
2022/05/21 06:53:16;;;;;;;;;;;20.70;99.90;;;;;;5280447;28;19911;-75
2022/05/21 06:55:47;;;;;;;;;;;20.90;99.90;;;;;;5278953;28;19933;-74
2022/05/21 06:58:21;;;;;;;;;;;20.90;99.90;;;;;;5281554;28;20338;-75
2022/05/21 07:00:54;;;;;;;;;;;21.00;99.90;;;;;;5281804;28;19914;-74
2022/05/21 07:03:28;;;;;;;;;;;21.00;99.90;;;;;;5282426;28;19911;-76
2022/05/21 07:08:51;;;;;;;;;;;21.30;99.90;;;;;;5276162;28;19895;-75
2022/05/21 07:11:25;;;;;;;;;;;21.20;99.90;;;;;;5279972;28;19911;-75
2022/05/21 07:13:58;;;;;;;;;;;21.10;99.90;;;;;;5281545;28;19903;-74
2022/05/21 07:16:31;;;;;;;;;;;21.00;99.90;;;;;;5262818;28;20213;-75
2022/05/21 07:19:02;;;;;;;;;;;21.10;99.90;;;;;;5281317;28;19907;-76
2022/05/21 07:21:36;;;;;;;;;;;21.00;99.90;;;;;;5281397;28;19907;-76
2022/05/21 07:24:07;;;;;;;;;;;21.10;99.90;;;;;;5281750;28;19908;-75
2022/05/21 07:26:38;;;;;;;;;;;21.00;99.90;;;;;;5281594;28;20423;-76
2022/05/21 07:29:09;;;;;;;;;;;21.10;99.90;;;;;;5280877;28;20417;-73
2022/05/21 07:31:40;;;;;;;;;;;21.20;99.90;;;;;;5281778;28;19956;-75
2022/05/21 07:34:14;;;;;;;;;;;21.10;99.90;;;;;;5281999;28;19938;-75
2022/05/21 07:36:46;;;;;;;;;;;21.10;99.90;;;;;;5282839;27;19908;-75
2022/05/21 07:39:17;;;;;;;;;;;21.40;99.90;;;;;;5261881;28;19922;-75
2022/05/21 07:41:48;;;;;;;;;;;21.60;99.90;;;;;;5268001;28;20121;-74
2022/05/21 07:44:19;;;;;;;;;;;21.70;99.90;;;;;;5280889;28;19904;-75
2022/05/21 07:46:50;;;;;;;;;;;21.70;99.90;;;;;;5272801;28;19910;-75
2022/05/21 07:49:23;;;;;;;;;;;21.80;99.90;;;;;;5261843;28;19900;-75
2022/05/21 07:51:56;;;;;;;;;;;21.60;99.90;;;;;;5263778;28;20457;-75
2022/05/21 07:54:27;;;;;;;;;;;21.90;99.90;;;;;;5261469;28;19908;-74
2022/05/21 07:57:01;;;;;;;;;;;22.10;99.90;;;;;;5265032;28;19896;-75
2022/05/21 07:59:33;;;;;;;;;;;22.30;99.90;;;;;;5266493;28;19900;-75
2022/05/21 08:02:05;;;;;;;;;;;22.40;99.90;;;;;;5279915;28;19907;-74
2022/05/21 08:04:36;;;;;;;;;;;22.60;99.90;;;;;;5272180;27;19941;-75
2022/05/21 08:07:07;;;;;;;;;;;22.70;99.90;;;;;;5290801;28;19943;-75
2022/05/21 08:09:38;;;;;;;;;;;22.80;99.90;;;;;;5275830;28;19907;-75
2022/05/21 08:12:14;;;;;;;;;;;23.00;99.90;;;;;;5250081;28;19918;-75
2022/05/21 08:14:50;;;;;;;;;;;22.90;99.90;;;;;;5270298;28;19904;-74
2022/05/21 08:17:21;;;;;;;;;;;22.80;99.90;;;;;;5268521;28;19900;-75
2022/05/21 08:19:52;;;;;;;;;;;23.00;99.90;;;;;;5268049;28;19908;-75
2022/05/21 08:28:02;;;;;;;;;;;23.00;99.90;;;;;;5269310;28;20355;-75
2022/05/21 08:30:34;;;;;;;;;;;23.30;99.90;;;;;;5268823;28;19899;-75
2022/05/21 08:33:08;;;;;;;;;;;23.30;99.90;;;;;;5278117;28;19904;-75
2022/05/21 08:35:43;;;;;;;;;;;23.20;99.90;;;;;;5275835;28;20211;-75
2022/05/21 08:38:15;;;;;;;;;;;22.90;99.90;;;;;;5275707;28;19912;-75
2022/05/21 08:40:58;;;;;;;;;;;22.90;99.90;;;;;;5276680;28;19906;-75
2022/05/21 08:43:44;;;;;;;;;;;23.10;99.90;;;;;;5276904;28;19911;-76
2022/05/21 08:46:34;;;;;;;;;;;23.50;99.90;;;;;;5269125;28;19900;-75
2022/05/21 08:49:09;;;;;;;;;;;23.80;99.90;;;;;;5268782;28;19904;-75
2022/05/21 08:51:44;;;;;;;;;;;23.80;99.90;;;;;;5270802;28;19911;-75
2022/05/21 08:54:21;;;;;;;;;;;23.70;99.90;;;;;;5269993;28;19904;-75
2022/05/21 08:56:57;;;;;;;;;;;24.10;99.90;;;;;;5272512;28;19908;-73
2022/05/21 08:59:31;;;;;;;;;;;24.50;99.90;;;;;;5273871;28;20109;-75
2022/05/21 09:02:02;;;;;;;;;;;24.20;99.90;;;;;;5272606;28;19911;-75
2022/05/21 09:04:36;;;;;;;;;;;23.70;99.90;;;;;;5263924;27;19911;-74
2022/05/21 09:07:23;;;;;;;;;;;23.60;99.90;;;;;;5266035;28;19908;-75
2022/05/21 09:09:54;;;;;;;;;;;23.70;99.90;;;;;;5288680;27;20242;-73
2022/05/21 09:12:45;;;;;;;;;;;24.00;99.90;;;;;;5280549;28;19957;-75
2022/05/21 09:16:54;;;;;;;;;;;24.40;99.90;;;;;;5278235;28;19912;-75
2022/05/21 09:18:14;;;;;;;;;;;24.50;99.90;;;;;;5285589;28;19913;-75
2022/05/21 09:20:51;;;;;;;;;;;24.20;99.90;;;;;;5286258;28;19900;-75
2022/05/21 09:23:24;;;;;;;;;;;24.50;99.90;;;;;;5286310;28;19915;-75
2022/05/21 09:26:05;;;;;;;;;;;24.50;99.90;;;;;;5288240;28;19899;-75
2022/05/21 09:28:41;;;;;;;;;;;24.20;99.90;;;;;;5288289;28;19899;-74
2022/05/21 09:31:12;;;;;;;;;;;24.30;99.90;;;;;;5287066;28;19910;-75
2022/05/21 09:33:46;;;;;;;;;;;24.60;99.90;;;;;;5284853;28;19906;-74
2022/05/21 09:36:30;;;;;;;;;;;24.30;99.90;;;;;;5294736;27;20125;-75
2022/05/21 09:39:03;;;;;;;;;;;24.50;99.90;;;;;;5293621;27;20348;-74
2022/05/21 09:41:39;;;;;;;;;;;24.20;99.90;;;;;;5264714;28;19900;-74
2022/05/21 09:47:09;;;;;;;;;;;24.10;99.90;;;;;;5283645;28;20189;-74
2022/05/21 09:49:44;;;;;;;;;;;24.20;99.90;;;;;;5265169;28;19896;-74
2022/05/21 09:52:28;;;;;;;;;;;23.90;99.90;;;;;;5283596;28;19914;-74
2022/05/21 09:55:03;;;;;;;;;;;24.10;99.90;;;;;;5283634;28;19930;-74
2022/05/21 09:57:47;;;;;;;;;;;24.50;99.90;;;;;;5283390;28;19910;-75
2022/05/21 10:00:21;;;;;;;;;;;24.50;99.90;;;;;;5283183;28;19900;-75
2022/05/21 10:02:58;;;;;;;;;;;24.50;99.90;;;;;;5265929;28;19946;-74
2022/05/21 10:05:36;;;;;;;;;;;25.00;99.90;;;;;;5255729;27;20397;-75
2022/05/21 10:11:08;;;;;;;;;;;24.80;99.90;;;;;;5282042;28;19903;-74
2022/05/21 10:13:46;;;;;;;;;;;24.60;99.90;;;;;;5280568;28;19912;-74
2022/05/21 10:16:35;;;;;;;;;;;24.90;99.90;;;;;;5283375;28;19911;-76
2022/05/21 10:19:06;;;;;;;;;;;25.10;99.90;;;;;;5283560;28;19899;-75
2022/05/21 10:21:50;;;;;;;;;;;24.70;99.90;;;;;;5283991;28;19923;-75
2022/05/21 10:24:27;;;;;;;;;;;24.90;99.90;;;;;;5244861;28;19910;-75
2022/05/21 10:27:00;;;;;;;;;;;25.30;99.90;;;;;;5262985;28;20250;-75
2022/05/21 10:29:47;;;;;;;;;;;26.00;99.90;;;;;;5254885;28;19921;-75
2022/05/21 10:32:25;;;;;;;;;;;25.90;99.90;;;;;;5264401;28;19903;-74
2022/05/21 10:34:56;;;;;;;;;;;25.40;99.90;;;;;;5281822;28;19899;-75
2022/05/21 10:37:29;;;;;;;;;;;25.00;99.90;;;;;;5285035;27;19957;-74
2022/05/21 10:40:00;;;;;;;;;;;25.40;99.90;;;;;;5281048;28;19900;-75
2022/05/21 10:42:50;;;;;;;;;;;26.20;99.90;;;;;;5283453;28;19904;-75
2022/05/21 10:45:21;;;;;;;;;;;26.20;99.90;;;;;;5282994;28;20289;-75
2022/05/21 10:47:52;;;;;;;;;;;26.00;99.90;;;;;;5277830;28;19903;-75
2022/05/21 10:50:27;;;;;;;;;;;26.10;99.90;;;;;;5281938;28;20245;-74
2022/05/21 10:53:16;;;;;;;;;;;26.30;99.90;;;;;;5263325;28;19908;-75
2022/05/21 10:56:06;;;;;;;;;;;26.90;99.90;;;;;;5261058;28;19906;-74
2022/05/21 10:58:56;;;;;;;;;;;27.50;99.90;;;;;;5267500;28;19911;-74
2022/05/21 11:01:37;;;;;;;;;;;26.40;99.90;;;;;;5281035;28;19973;-74
2022/05/21 11:04:11;;;;;;;;;;;26.70;99.90;;;;;;5281785;28;19912;-75
2022/05/21 11:07:02;;;;;;;;;;;26.60;99.90;;;;;;5250309;28;19918;-74
2022/05/21 11:09:48;;;;;;;;;;;25.90;99.90;;;;;;5286407;27;19900;-75
2022/05/21 11:12:31;;;;;;;;;;;26.00;99.90;;;;;;5281914;28;20329;-74
2022/05/21 11:15:23;;;;;;;;;;;26.20;99.90;;;;;;5281551;28;19912;-74
2022/05/21 11:17:57;;;;;;;;;;;25.90;99.90;;;;;;5281860;28;19954;-73
2022/05/21 11:20:40;;;;;;;;;;;26.20;99.90;;;;;;5278461;28;19904;-75
2022/05/21 11:23:17;;;;;;;;;;;26.30;99.90;;;;;;5268610;28;20234;-75
2022/05/21 11:26:07;;;;;;;;;;;26.50;99.90;;;;;;5271089;28;19899;-75
2022/05/21 11:28:47;;;;;;;;;;;27.20;99.90;;;;;;5279550;28;19899;-75
2022/05/21 11:37:22;;;;;;;;;;;28.10;99.90;;;;;;5278580;27;19904;-74
2022/05/21 11:39:55;;;;;;;;;;;27.80;99.90;;;;;;5259700;28;19900;-74
2022/05/21 11:42:36;;;;;;;;;;;27.50;99.90;;;;;;5252258;28;19903;-74
2022/05/21 11:45:23;;;;;;;;;;;27.80;99.90;;;;;;5277762;28;20265;-74
2022/05/21 11:48:10;;;;;;;;;;;27.30;99.90;;;;;;5277673;28;20437;-74
2022/05/21 11:51:38;;;;;;;0.90;0.90;;;26.90;99.90;;;;;;5272899;27;20930;-74
2022/05/21 11:54:45;;;;;;;1.48;1.25;;;27.20;99.90;;;;;;5262240;28;20032;-73
2022/05/21 11:57:47;;;;;;;1.13;0.82;;;26.80;99.90;;;;;;5250986;28;20514;-73
2022/05/21 12:00:21;;;;;;;1.38;1.27;;;26.80;99.90;;;;;;5248162;28;20031;-73
2022/05/21 12:03:04;;;;;;;2.05;1.10;;;27.90;99.90;;;;;;5256533;28;20032;-74
2022/05/21 12:05:45;;;;;;;1.77;1.10;;;28.00;99.90;;;;;;5221394;28;20045;-74
2022/05/21 12:08:38;;;;;;;1.38;1.00;;;28.60;99.90;;;;;;5195379;28;20043;-73
2022/05/21 12:11:15;;;;;;;1.17;1.00;;;27.50;99.90;;;;;;5220639;28;20184;-73
2022/05/21 12:14:27;;;;;;;0.98;0.88;;;27.60;99.90;;;;;;5216246;28;20047;-73
2022/05/21 12:17:02;;;;;;;3.53;1.25;;;28.10;99.90;;;;;;5197273;28;20331;-73
2022/05/21 12:19:56;;;;;;;1.75;1.50;;;27.60;99.90;;;;;;5203957;28;20017;-73
2022/05/21 12:22:39;;;;;;;1.02;0.93;;;27.40;99.90;;;;;;5213213;28;20246;-74
2022/05/21 12:25:42;;;;;;;0.90;0.73;;;27.20;99.90;;;;;;5217067;28;20040;-73
2022/05/21 12:28:14;;;;;;;0.60;0.60;;;27.50;99.90;;;;;;5215640;28;20021;-73
2022/05/21 12:31:00;;;;;;;0.77;0.77;;;27.20;99.90;;;;;;5204861;28;20022;-73
2022/05/21 12:34:22;;;;;;;0.90;0.90;;;27.00;99.90;;;;;;5210945;28;20032;-73
2022/05/21 12:37:30;;;;;;;2.85;1.10;;;27.20;99.90;;;;;;5213828;28;20415;-73
2022/05/21 12:40:32;;;;;;;1.10;1.00;;;27.40;99.90;;;;;;5194796;28;20028;-73
2022/05/21 12:43:20;;;;;;;0.73;0.73;;;27.00;99.90;;;;;;5195291;28;20044;-73
2022/05/21 12:45:53;;;;;;;1.55;1.45;;;27.00;99.90;;;;;;5215850;28;20013;-73
2022/05/21 12:48:37;;;;;;;0.85;0.85;;;27.20;99.90;;;;;;5214914;28;20031;-72
2022/05/21 12:51:32;;;;;;;0.98;0.90;;;27.30;99.90;;;;;;5212604;28;20025;-73
2022/05/21 12:54:33;;;;;;;1.13;1.00;;;28.30;99.90;;;;;;5196732;28;20029;-74
2022/05/21 12:57:23;;;;;;;1.95;1.17;;;28.80;99.90;;;;;;5215586;28;20029;-72
2022/05/21 13:00:18;;;;;;;0.90;0.90;;;27.70;99.90;;;;;;5233023;28;20029;-74
2022/05/21 13:02:56;;;;;;;1.77;1.05;;;27.90;99.90;;;;;;5193616;28;20030;-73
2022/05/21 13:05:35;;;;;;;3.70;0.98;;;28.10;99.90;;;;;;5189239;28;20617;-74
2022/05/21 13:08:12;;;;;;;0.98;0.98;;;27.20;99.90;;;;;;5179651;28;20094;-74
2022/05/21 13:11:08;;;;;;;2.17;0.82;;;27.60;99.90;;;;;;5181343;28;20026;-74
2022/05/21 13:13:44;;;;;;;1.38;1.00;;;27.80;99.90;;;;;;5180010;28;20091;-74
2022/05/21 13:16:18;;;;;;;1.23;1.02;;;28.30;99.90;;;;;;5191008;28;20010;-73
2022/05/21 13:19:28;;;;;;;0.82;0.82;;;28.30;99.90;;;;;;5200519;28;20394;-73
2022/05/21 13:22:30;;;;;;;1.08;0.98;;;28.60;99.90;;;;;;5196848;28;20037;-75
2022/05/21 13:25:09;;;;;;;0.73;0.73;;;28.50;99.90;;;;;;5194841;28;20021;-73
2022/05/21 13:27:54;;;;;;;0.98;0.82;;;28.50;99.90;;;;;;5183266;28;20038;-74
2022/05/21 13:30:47;;;;;;;3.38;1.05;;;27.80;99.90;;;;;;5199517;28;20032;-73
2022/05/21 13:33:53;;;;;;;1.45;1.15;;;28.40;99.90;;;;;;5197750;28;20455;-74
2022/05/21 13:36:33;;;;;;;0.90;0.90;;;28.20;99.90;;;;;;5192915;28;20026;-73
2022/05/21 13:39:16;;;;;;;1.70;0.80;;;28.10;99.90;;;;;;5200456;28;20013;-74
2022/05/21 13:41:47;;;;;;;1.05;0.90;;;27.70;99.90;;;;;;5199957;28;20028;-74
2022/05/21 13:44:26;;;;;;;0.70;0.70;;;27.90;99.90;;;;;;5202285;28;20025;-74
2022/05/21 13:47:25;;;;;;;0.90;0.90;;;28.00;99.90;;;;;;5202804;28;20039;-74
2022/05/21 13:49:57;;;;;;;2.90;1.13;;;28.30;99.90;;;;;;5201180;28;20368;-74
2022/05/21 13:52:32;;;;;;;0.90;0.90;;;28.00;99.90;;;;;;5218356;28;20035;-74
2022/05/21 13:55:07;;;;;;;1.10;0.98;;;28.30;99.90;;;;;;5184880;28;20025;-73
2022/05/21 13:57:41;;;;;;;0.93;0.90;;;28.70;99.90;;;;;;5202529;28;20017;-74
2022/05/21 14:00:22;;;;;;;;;;;28.30;99.90;;;;;;5207031;28;20044;-74
2022/05/21 14:02:57;;;;;;;0.68;0.68;;;28.70;99.90;;;;;;5199404;28;19905;-73
2022/05/21 14:05:50;;;;;;;1.40;1.30;;;28.10;99.90;;;;;;5204709;28;20130;-73
2022/05/21 14:08:35;;;;;;;1.05;1.05;;;28.40;99.90;;;;;;5203506;28;20191;-75
2022/05/21 14:11:22;;;;;;;0.88;0.88;;;28.40;99.90;;;;;;5217788;28;20040;-75
2022/05/21 14:14:03;;;;;;;1.10;1.05;;;28.30;99.90;;;;;;5201364;28;20018;-74
2022/05/21 14:16:41;;;;;;;1.02;0.93;;;28.60;99.90;;;;;;5202748;28;20032;-74
2022/05/21 14:19:18;;;;;;;1.35;1.13;;;28.10;99.90;;;;;;5237482;28;20021;-74
2022/05/21 14:22:00;;;;;;;0.80;0.80;;;28.20;99.90;;;;;;5201458;28;20234;-74
2022/05/21 14:24:38;;;;;;;1.85;0.68;;;28.00;99.90;;;;;;5199622;28;20475;-74
2022/05/21 14:27:16;;;;;;;0.93;0.90;;;29.20;99.90;;;;;;5199081;28;20037;-72
2022/05/21 14:29:55;;;;;;;1.50;1.00;;;30.00;99.90;;;;;;5210256;28;20039;-73
2022/05/21 14:32:40;;;;;;;0.90;0.90;;;29.10;99.90;;;;;;5215477;28;20047;-73
2022/05/21 14:35:21;;;;;;;1.20;1.08;;;30.10;99.90;;;;;;5219400;28;20027;-74
2022/05/21 14:37:57;;;;;;;1.10;1.00;;;29.50;99.90;;;;;;5219122;28;20043;-75
2022/05/21 14:40:52;;;;;;;2.25;1.00;;;28.90;99.90;;;;;;5217823;28;20027;-74
2022/05/21 14:43:43;;;;;;;;;;;28.50;99.90;;;;;;5235268;28;20027;-74
2022/05/21 14:49:08;;;;;;;0.80;0.80;;;27.50;99.90;;;;;;5232895;28;20498;-74
2022/05/21 14:54:42;;;;;;;0.93;0.70;;;28.30;99.90;;;;;;5199083;28;20028;-74
2022/05/21 14:57:15;;;;;;;1.10;0.80;;;27.80;99.90;;;;;;5203556;28;20025;-74
2022/05/21 14:59:47;;;;;;;1.00;0.90;;;27.10;99.90;;;;;;5215807;28;20029;-74
2022/05/21 15:02:21;;;;;;;1.20;1.10;;;26.30;99.90;;;;;;5206975;28;20371;-74
2022/05/21 15:04:52;;;;;;;0.90;0.85;;;26.40;99.90;;;;;;5194354;28;20045;-73
2022/05/21 15:07:27;;;;;;;1.23;0.77;;;26.40;99.90;;;;;;5227585;28;20031;-73
2022/05/21 15:09:59;;;;;;;0.75;0.75;;;25.70;99.90;;;;;;5219358;28;20031;-75
2022/05/21 15:12:33;;;;;;;3.95;0.95;;;25.50;99.90;;;;;;5191221;28;20048;-75
2022/05/21 15:15:05;;;;;;;1.00;1.00;;;25.70;99.90;;;;;;5198009;28;20019;-74
2022/05/21 15:17:37;;;;;;;0.70;0.70;;;25.90;99.90;;;;;;5198439;28;20029;-74
2022/05/21 15:20:13;;;;;;;0.80;0.80;;;25.70;99.90;;;;;;5197420;28;20009;-74
2022/05/21 15:22:49;;;;;;;0.80;0.80;;;25.40;99.90;;;;;;5199865;28;20033;-74
2022/05/21 15:25:24;;;;;;;1.15;1.10;;;25.80;99.90;;;;;;5210205;28;20021;-74
2022/05/21 15:28:00;;;;;;;1.00;1.00;;;26.30;99.90;;;;;;5218649;28;20020;-74